sensor_id;sensor_type;location;lat;lon;timestamp;P1;durP1;ratioP1;P2;durP2;ratioP2
11960;SDS011;6040;49.358;11.140;2022-07-09T00:01:28;2.20;;;1.60;;
11960;SDS011;6040;49.358;11.140;2022-07-09T00:03:56;2.93;;;1.63;;
11960;SDS011;6040;49.358;11.140;2022-07-09T00:06:23;3.67;;;1.70;;
11960;SDS011;6040;49.358;11.140;2022-07-09T00:08:49;2.40;;;1.70;;
11960;SDS011;6040;49.358;11.140;2022-07-09T00:11:16;2.67;;;1.80;;
11960;SDS011;6040;49.358;11.140;2022-07-09T00:13:43;3.10;;;1.67;;
11960;SDS011;6040;49.358;11.140;2022-07-09T00:16:10;4.90;;;1.83;;
11960;SDS011;6040;49.358;11.140;2022-07-09T00:18:37;2.87;;;1.53;;
11960;SDS011;6040;49.358;11.140;2022-07-09T00:21:05;2.97;;;1.80;;
11960;SDS011;6040;49.358;11.140;2022-07-09T00:23:32;3.43;;;2.10;;
11960;SDS011;6040;49.358;11.140;2022-07-09T00:25:59;2.67;;;1.70;;
11960;SDS011;6040;49.358;11.140;2022-07-09T00:28:26;2.87;;;1.80;;
11960;SDS011;6040;49.358;11.140;2022-07-09T00:30:53;3.87;;;1.80;;
11960;SDS011;6040;49.358;11.140;2022-07-09T00:33:20;4.07;;;1.80;;
11960;SDS011;6040;49.358;11.140;2022-07-09T00:35:47;3.07;;;2.00;;
11960;SDS011;6040;49.358;11.140;2022-07-09T00:38:15;2.47;;;1.90;;
11960;SDS011;6040;49.358;11.140;2022-07-09T00:40:42;2.53;;;1.70;;
11960;SDS011;6040;49.358;11.140;2022-07-09T00:43:16;4.53;;;1.80;;
11960;SDS011;6040;49.358;11.140;2022-07-09T00:45:43;4.80;;;2.03;;
11960;SDS011;6040;49.358;11.140;2022-07-09T00:48:11;3.30;;;1.80;;
11960;SDS011;6040;49.358;11.140;2022-07-09T00:50:38;3.47;;;2.13;;
11960;SDS011;6040;49.358;11.140;2022-07-09T00:53:07;2.03;;;1.80;;
11960;SDS011;6040;49.358;11.140;2022-07-09T00:55:38;3.87;;;1.83;;
11960;SDS011;6040;49.358;11.140;2022-07-09T00:58:05;2.93;;;1.90;;
11960;SDS011;6040;49.358;11.140;2022-07-09T01:00:33;4.97;;;2.17;;
11960;SDS011;6040;49.358;11.140;2022-07-09T01:03:01;2.37;;;1.77;;
11960;SDS011;6040;49.358;11.140;2022-07-09T01:05:28;2.23;;;1.93;;
11960;SDS011;6040;49.358;11.140;2022-07-09T01:08:00;1.93;;;1.70;;
11960;SDS011;6040;49.358;11.140;2022-07-09T01:10:28;3.87;;;2.10;;
11960;SDS011;6040;49.358;11.140;2022-07-09T01:12:57;4.43;;;1.93;;
11960;SDS011;6040;49.358;11.140;2022-07-09T01:15:24;2.13;;;1.80;;
11960;SDS011;6040;49.358;11.140;2022-07-09T01:17:51;2.67;;;1.90;;
11960;SDS011;6040;49.358;11.140;2022-07-09T01:20:21;4.00;;;2.20;;
11960;SDS011;6040;49.358;11.140;2022-07-09T01:22:48;2.30;;;1.80;;
11960;SDS011;6040;49.358;11.140;2022-07-09T01:25:16;4.50;;;2.10;;
11960;SDS011;6040;49.358;11.140;2022-07-09T01:27:43;2.30;;;1.90;;
11960;SDS011;6040;49.358;11.140;2022-07-09T01:30:10;2.60;;;1.90;;
11960;SDS011;6040;49.358;11.140;2022-07-09T01:32:37;2.20;;;1.90;;
11960;SDS011;6040;49.358;11.140;2022-07-09T01:35:04;4.00;;;1.90;;
11960;SDS011;6040;49.358;11.140;2022-07-09T01:37:33;2.73;;;1.87;;
11960;SDS011;6040;49.358;11.140;2022-07-09T01:40:00;2.03;;;1.80;;
11960;SDS011;6040;49.358;11.140;2022-07-09T01:42:26;2.40;;;1.87;;
11960;SDS011;6040;49.358;11.140;2022-07-09T01:44:53;4.20;;;1.80;;
11960;SDS011;6040;49.358;11.140;2022-07-09T01:47:20;3.60;;;2.00;;
11960;SDS011;6040;49.358;11.140;2022-07-09T01:49:47;2.27;;;2.00;;
11960;SDS011;6040;49.358;11.140;2022-07-09T01:52:14;3.43;;;2.00;;
11960;SDS011;6040;49.358;11.140;2022-07-09T01:54:42;3.70;;;1.87;;
11960;SDS011;6040;49.358;11.140;2022-07-09T01:57:09;3.27;;;2.30;;
11960;SDS011;6040;49.358;11.140;2022-07-09T01:59:36;2.67;;;1.90;;
11960;SDS011;6040;49.358;11.140;2022-07-09T02:02:03;3.00;;;2.00;;
11960;SDS011;6040;49.358;11.140;2022-07-09T02:04:30;5.63;;;2.33;;
11960;SDS011;6040;49.358;11.140;2022-07-09T02:06:57;2.87;;;1.80;;
11960;SDS011;6040;49.358;11.140;2022-07-09T02:09:24;3.40;;;1.90;;
11960;SDS011;6040;49.358;11.140;2022-07-09T02:11:52;3.10;;;2.00;;
11960;SDS011;6040;49.358;11.140;2022-07-09T02:14:19;4.37;;;2.20;;
11960;SDS011;6040;49.358;11.140;2022-07-09T02:16:46;3.37;;;2.17;;
11960;SDS011;6040;49.358;11.140;2022-07-09T02:19:13;4.87;;;2.10;;
11960;SDS011;6040;49.358;11.140;2022-07-09T02:21:40;3.43;;;1.93;;
11960;SDS011;6040;49.358;11.140;2022-07-09T02:24:07;3.30;;;1.93;;
11960;SDS011;6040;49.358;11.140;2022-07-09T02:26:33;3.90;;;1.90;;
11960;SDS011;6040;49.358;11.140;2022-07-09T02:29:02;2.37;;;2.00;;
11960;SDS011;6040;49.358;11.140;2022-07-09T02:31:29;2.23;;;2.00;;
11960;SDS011;6040;49.358;11.140;2022-07-09T02:33:56;3.23;;;2.20;;
11960;SDS011;6040;49.358;11.140;2022-07-09T02:36:23;4.57;;;2.27;;
11960;SDS011;6040;49.358;11.140;2022-07-09T02:38:50;2.77;;;2.10;;
11960;SDS011;6040;49.358;11.140;2022-07-09T02:41:18;3.33;;;2.00;;
11960;SDS011;6040;49.358;11.140;2022-07-09T02:43:44;2.63;;;1.93;;
11960;SDS011;6040;49.358;11.140;2022-07-09T02:46:13;3.67;;;2.33;;
11960;SDS011;6040;49.358;11.140;2022-07-09T02:48:40;2.47;;;1.80;;
11960;SDS011;6040;49.358;11.140;2022-07-09T02:51:07;2.67;;;2.00;;
11960;SDS011;6040;49.358;11.140;2022-07-09T02:53:34;3.63;;;2.30;;
11960;SDS011;6040;49.358;11.140;2022-07-09T02:56:00;3.93;;;2.03;;
11960;SDS011;6040;49.358;11.140;2022-07-09T02:58:27;2.23;;;1.83;;
11960;SDS011;6040;49.358;11.140;2022-07-09T03:00:54;4.77;;;2.50;;
11960;SDS011;6040;49.358;11.140;2022-07-09T03:03:22;6.10;;;2.13;;
11960;SDS011;6040;49.358;11.140;2022-07-09T03:05:49;3.53;;;2.23;;
11960;SDS011;6040;49.358;11.140;2022-07-09T03:08:16;2.63;;;2.20;;
11960;SDS011;6040;49.358;11.140;2022-07-09T03:10:46;3.03;;;2.20;;
11960;SDS011;6040;49.358;11.140;2022-07-09T03:13:13;5.83;;;2.17;;
11960;SDS011;6040;49.358;11.140;2022-07-09T03:15:40;4.13;;;2.17;;
11960;SDS011;6040;49.358;11.140;2022-07-09T03:18:07;3.03;;;2.00;;
11960;SDS011;6040;49.358;11.140;2022-07-09T03:20:36;3.93;;;2.07;;
11960;SDS011;6040;49.358;11.140;2022-07-09T03:23:03;3.90;;;2.20;;
11960;SDS011;6040;49.358;11.140;2022-07-09T03:25:30;3.30;;;2.10;;
11960;SDS011;6040;49.358;11.140;2022-07-09T03:27:57;2.90;;;1.93;;
11960;SDS011;6040;49.358;11.140;2022-07-09T03:30:25;5.03;;;2.33;;
11960;SDS011;6040;49.358;11.140;2022-07-09T03:32:52;4.50;;;2.07;;
11960;SDS011;6040;49.358;11.140;2022-07-09T03:35:18;2.73;;;2.10;;
11960;SDS011;6040;49.358;11.140;2022-07-09T03:37:47;3.07;;;2.10;;
11960;SDS011;6040;49.358;11.140;2022-07-09T03:40:13;2.43;;;2.07;;
11960;SDS011;6040;49.358;11.140;2022-07-09T03:42:40;2.97;;;2.13;;
11960;SDS011;6040;49.358;11.140;2022-07-09T03:45:07;6.00;;;2.60;;
11960;SDS011;6040;49.358;11.140;2022-07-09T03:47:35;6.77;;;2.30;;
11960;SDS011;6040;49.358;11.140;2022-07-09T03:50:02;2.10;;;1.90;;
11960;SDS011;6040;49.358;11.140;2022-07-09T03:52:29;2.73;;;2.20;;
11960;SDS011;6040;49.358;11.140;2022-07-09T03:54:58;3.80;;;2.10;;
11960;SDS011;6040;49.358;11.140;2022-07-09T03:57:25;2.40;;;1.90;;
11960;SDS011;6040;49.358;11.140;2022-07-09T03:59:52;3.53;;;1.90;;
11960;SDS011;6040;49.358;11.140;2022-07-09T04:02:19;2.57;;;2.10;;
11960;SDS011;6040;49.358;11.140;2022-07-09T04:04:45;2.80;;;1.90;;
11960;SDS011;6040;49.358;11.140;2022-07-09T04:07:12;5.83;;;2.20;;
11960;SDS011;6040;49.358;11.140;2022-07-09T04:09:39;2.80;;;2.20;;
11960;SDS011;6040;49.358;11.140;2022-07-09T04:12:08;2.80;;;2.10;;
11960;SDS011;6040;49.358;11.140;2022-07-09T04:14:34;2.53;;;1.97;;
11960;SDS011;6040;49.358;11.140;2022-07-09T04:17:01;3.27;;;2.20;;
11960;SDS011;6040;49.358;11.140;2022-07-09T04:19:29;4.20;;;2.10;;
11960;SDS011;6040;49.358;11.140;2022-07-09T04:21:56;2.87;;;2.20;;
11960;SDS011;6040;49.358;11.140;2022-07-09T04:24:22;2.03;;;1.83;;
11960;SDS011;6040;49.358;11.140;2022-07-09T04:26:49;2.40;;;2.20;;
11960;SDS011;6040;49.358;11.140;2022-07-09T04:29:17;4.20;;;2.00;;
11960;SDS011;6040;49.358;11.140;2022-07-09T04:31:44;3.07;;;2.13;;
11960;SDS011;6040;49.358;11.140;2022-07-09T04:34:11;4.13;;;2.20;;
11960;SDS011;6040;49.358;11.140;2022-07-09T04:36:38;5.17;;;2.17;;
11960;SDS011;6040;49.358;11.140;2022-07-09T04:39:05;4.13;;;2.50;;
11960;SDS011;6040;49.358;11.140;2022-07-09T04:41:32;3.50;;;2.37;;
11960;SDS011;6040;49.358;11.140;2022-07-09T04:43:59;2.30;;;2.10;;
11960;SDS011;6040;49.358;11.140;2022-07-09T04:46:27;2.67;;;2.10;;
11960;SDS011;6040;49.358;11.140;2022-07-09T04:48:55;2.63;;;2.03;;
11960;SDS011;6040;49.358;11.140;2022-07-09T04:51:22;2.57;;;2.10;;
11960;SDS011;6040;49.358;11.140;2022-07-09T04:53:49;4.30;;;2.20;;
11960;SDS011;6040;49.358;11.140;2022-07-09T04:56:16;4.67;;;2.30;;
11960;SDS011;6040;49.358;11.140;2022-07-09T04:58:43;3.80;;;2.40;;
11960;SDS011;6040;49.358;11.140;2022-07-09T05:01:17;3.77;;;2.30;;
11960;SDS011;6040;49.358;11.140;2022-07-09T05:03:46;4.57;;;2.33;;
11960;SDS011;6040;49.358;11.140;2022-07-09T05:06:13;4.07;;;2.40;;
11960;SDS011;6040;49.358;11.140;2022-07-09T05:08:41;3.70;;;2.20;;
11960;SDS011;6040;49.358;11.140;2022-07-09T05:11:08;3.97;;;2.50;;
11960;SDS011;6040;49.358;11.140;2022-07-09T05:13:35;2.97;;;2.30;;
11960;SDS011;6040;49.358;11.140;2022-07-09T05:16:02;3.27;;;2.13;;
11960;SDS011;6040;49.358;11.140;2022-07-09T05:18:30;6.33;;;2.50;;
11960;SDS011;6040;49.358;11.140;2022-07-09T05:20:58;2.83;;;2.20;;
11960;SDS011;6040;49.358;11.140;2022-07-09T05:23:25;4.97;;;2.60;;
11960;SDS011;6040;49.358;11.140;2022-07-09T05:25:51;2.30;;;2.00;;
11960;SDS011;6040;49.358;11.140;2022-07-09T05:28:18;3.97;;;2.20;;
11960;SDS011;6040;49.358;11.140;2022-07-09T05:30:45;3.57;;;2.20;;
11960;SDS011;6040;49.358;11.140;2022-07-09T05:33:12;3.67;;;2.43;;
11960;SDS011;6040;49.358;11.140;2022-07-09T05:35:39;4.80;;;2.40;;
11960;SDS011;6040;49.358;11.140;2022-07-09T05:38:07;2.53;;;2.00;;
11960;SDS011;6040;49.358;11.140;2022-07-09T05:40:34;3.77;;;2.37;;
11960;SDS011;6040;49.358;11.140;2022-07-09T05:43:01;3.80;;;2.10;;
11960;SDS011;6040;49.358;11.140;2022-07-09T05:45:29;4.70;;;2.67;;
11960;SDS011;6040;49.358;11.140;2022-07-09T05:47:56;3.53;;;2.23;;
11960;SDS011;6040;49.358;11.140;2022-07-09T05:50:23;2.70;;;1.93;;
11960;SDS011;6040;49.358;11.140;2022-07-09T05:52:50;5.83;;;2.33;;
11960;SDS011;6040;49.358;11.140;2022-07-09T05:55:18;3.90;;;2.10;;
11960;SDS011;6040;49.358;11.140;2022-07-09T05:57:45;3.57;;;2.20;;
11960;SDS011;6040;49.358;11.140;2022-07-09T06:00:12;3.10;;;2.03;;
11960;SDS011;6040;49.358;11.140;2022-07-09T06:02:39;5.47;;;2.10;;
11960;SDS011;6040;49.358;11.140;2022-07-09T06:05:06;3.33;;;2.03;;
11960;SDS011;6040;49.358;11.140;2022-07-09T06:07:34;2.97;;;2.10;;
11960;SDS011;6040;49.358;11.140;2022-07-09T06:10:00;9.10;;;2.40;;
11960;SDS011;6040;49.358;11.140;2022-07-09T06:12:29;4.27;;;2.30;;
11960;SDS011;6040;49.358;11.140;2022-07-09T06:14:55;3.40;;;2.07;;
11960;SDS011;6040;49.358;11.140;2022-07-09T06:17:22;4.13;;;2.13;;
11960;SDS011;6040;49.358;11.140;2022-07-09T06:19:49;3.30;;;2.20;;
11960;SDS011;6040;49.358;11.140;2022-07-09T06:22:16;4.30;;;2.23;;
11960;SDS011;6040;49.358;11.140;2022-07-09T06:24:43;5.67;;;2.67;;
11960;SDS011;6040;49.358;11.140;2022-07-09T06:27:10;4.50;;;2.30;;
11960;SDS011;6040;49.358;11.140;2022-07-09T06:29:38;4.67;;;2.10;;
11960;SDS011;6040;49.358;11.140;2022-07-09T06:32:05;5.30;;;2.30;;
11960;SDS011;6040;49.358;11.140;2022-07-09T06:34:33;3.37;;;2.37;;
11960;SDS011;6040;49.358;11.140;2022-07-09T06:36:59;4.13;;;2.07;;
11960;SDS011;6040;49.358;11.140;2022-07-09T06:39:26;3.23;;;2.17;;
11960;SDS011;6040;49.358;11.140;2022-07-09T06:42:12;3.73;;;2.13;;
11960;SDS011;6040;49.358;11.140;2022-07-09T06:44:41;3.83;;;2.20;;
11960;SDS011;6040;49.358;11.140;2022-07-09T06:47:09;2.63;;;2.20;;
11960;SDS011;6040;49.358;11.140;2022-07-09T06:49:36;4.37;;;2.00;;
11960;SDS011;6040;49.358;11.140;2022-07-09T06:52:04;5.70;;;2.00;;
11960;SDS011;6040;49.358;11.140;2022-07-09T06:54:32;18.20;;;3.10;;
11960;SDS011;6040;49.358;11.140;2022-07-09T06:56:59;4.23;;;1.83;;
11960;SDS011;6040;49.358;11.140;2022-07-09T06:59:26;4.03;;;2.03;;
11960;SDS011;6040;49.358;11.140;2022-07-09T07:01:54;3.17;;;1.40;;
11960;SDS011;6040;49.358;11.140;2022-07-09T07:04:22;4.00;;;1.63;;
11960;SDS011;6040;49.358;11.140;2022-07-09T07:06:50;3.00;;;1.93;;
11960;SDS011;6040;49.358;11.140;2022-07-09T07:09:16;3.60;;;1.63;;
11960;SDS011;6040;49.358;11.140;2022-07-09T07:11:46;2.83;;;1.70;;
11960;SDS011;6040;49.358;11.140;2022-07-09T07:14:13;5.60;;;1.60;;
11960;SDS011;6040;49.358;11.140;2022-07-09T07:16:41;3.63;;;1.70;;
11960;SDS011;6040;49.358;11.140;2022-07-09T07:19:09;2.43;;;1.57;;
11960;SDS011;6040;49.358;11.140;2022-07-09T07:21:36;2.63;;;1.63;;
11960;SDS011;6040;49.358;11.140;2022-07-09T07:24:04;1.87;;;1.67;;
11960;SDS011;6040;49.358;11.140;2022-07-09T07:26:31;2.60;;;1.60;;
11960;SDS011;6040;49.358;11.140;2022-07-09T07:28:57;2.93;;;1.60;;
11960;SDS011;6040;49.358;11.140;2022-07-09T07:31:25;2.07;;;1.30;;
11960;SDS011;6040;49.358;11.140;2022-07-09T07:33:52;3.03;;;1.63;;
11960;SDS011;6040;49.358;11.140;2022-07-09T07:36:20;3.43;;;1.43;;
11960;SDS011;6040;49.358;11.140;2022-07-09T07:38:47;4.53;;;1.70;;
11960;SDS011;6040;49.358;11.140;2022-07-09T07:41:14;3.50;;;1.70;;
11960;SDS011;6040;49.358;11.140;2022-07-09T07:43:43;2.40;;;1.60;;
11960;SDS011;6040;49.358;11.140;2022-07-09T07:46:10;2.30;;;1.33;;
11960;SDS011;6040;49.358;11.140;2022-07-09T07:48:37;2.43;;;1.30;;
11960;SDS011;6040;49.358;11.140;2022-07-09T07:51:06;2.67;;;1.50;;
11960;SDS011;6040;49.358;11.140;2022-07-09T07:53:35;3.50;;;1.50;;
11960;SDS011;6040;49.358;11.140;2022-07-09T07:56:02;1.83;;;1.30;;
11960;SDS011;6040;49.358;11.140;2022-07-09T07:58:30;4.00;;;1.40;;
11960;SDS011;6040;49.358;11.140;2022-07-09T08:00:57;2.83;;;1.53;;
11960;SDS011;6040;49.358;11.140;2022-07-09T08:03:24;2.07;;;1.33;;
11960;SDS011;6040;49.358;11.140;2022-07-09T08:05:51;2.43;;;1.10;;
11960;SDS011;6040;49.358;11.140;2022-07-09T08:08:18;2.33;;;1.23;;
11960;SDS011;6040;49.358;11.140;2022-07-09T08:10:47;2.23;;;1.27;;
11960;SDS011;6040;49.358;11.140;2022-07-09T08:13:14;2.70;;;1.20;;
11960;SDS011;6040;49.358;11.140;2022-07-09T08:15:41;4.40;;;1.30;;
11960;SDS011;6040;49.358;11.140;2022-07-09T08:18:09;2.17;;;1.20;;
11960;SDS011;6040;49.358;11.140;2022-07-09T08:20:37;2.93;;;1.30;;
11960;SDS011;6040;49.358;11.140;2022-07-09T08:23:05;3.77;;;1.40;;
11960;SDS011;6040;49.358;11.140;2022-07-09T08:25:32;2.73;;;1.20;;
11960;SDS011;6040;49.358;11.140;2022-07-09T08:28:00;3.05;;;1.48;;
11960;SDS011;6040;49.358;11.140;2022-07-09T08:30:27;2.20;;;1.40;;
11960;SDS011;6040;49.358;11.140;2022-07-09T08:32:55;1.58;;;1.10;;
11960;SDS011;6040;49.358;11.140;2022-07-09T08:35:22;2.28;;;1.40;;
11960;SDS011;6040;49.358;11.140;2022-07-09T08:37:50;4.18;;;1.20;;
11960;SDS011;6040;49.358;11.140;2022-07-09T08:40:17;1.35;;;1.08;;
11960;SDS011;6040;49.358;11.140;2022-07-09T08:42:44;4.70;;;1.50;;
11960;SDS011;6040;49.358;11.140;2022-07-09T08:45:12;1.55;;;1.33;;
11960;SDS011;6040;49.358;11.140;2022-07-09T08:47:40;4.65;;;1.15;;
11960;SDS011;6040;49.358;11.140;2022-07-09T08:50:07;2.13;;;1.25;;
11960;SDS011;6040;49.358;11.140;2022-07-09T08:52:35;2.95;;;1.30;;
11960;SDS011;6040;49.358;11.140;2022-07-09T08:55:03;3.58;;;1.42;;
11960;SDS011;6040;49.358;11.140;2022-07-09T08:57:32;3.95;;;1.65;;
11960;SDS011;6040;49.358;11.140;2022-07-09T08:59:59;2.55;;;1.40;;
11960;SDS011;6040;49.358;11.140;2022-07-09T09:02:34;2.72;;;1.33;;
11960;SDS011;6040;49.358;11.140;2022-07-09T09:05:05;2.75;;;1.30;;
11960;SDS011;6040;49.358;11.140;2022-07-09T09:07:36;1.33;;;1.20;;
11960;SDS011;6040;49.358;11.140;2022-07-09T09:10:03;3.10;;;1.50;;
11960;SDS011;6040;49.358;11.140;2022-07-09T09:12:30;2.53;;;1.60;;
11960;SDS011;6040;49.358;11.140;2022-07-09T09:14:58;2.70;;;1.25;;
11960;SDS011;6040;49.358;11.140;2022-07-09T09:17:25;1.95;;;1.30;;
11960;SDS011;6040;49.358;11.140;2022-07-09T09:19:53;5.35;;;1.50;;
11960;SDS011;6040;49.358;11.140;2022-07-09T09:22:20;1.77;;;1.30;;
11960;SDS011;6040;49.358;11.140;2022-07-09T09:24:50;2.65;;;1.55;;
11960;SDS011;6040;49.358;11.140;2022-07-09T09:27:18;2.28;;;1.40;;
11960;SDS011;6040;49.358;11.140;2022-07-09T09:29:54;1.90;;;1.30;;
11960;SDS011;6040;49.358;11.140;2022-07-09T09:32:24;1.52;;;1.42;;
11960;SDS011;6040;49.358;11.140;2022-07-09T09:34:53;2.85;;;1.60;;
11960;SDS011;6040;49.358;11.140;2022-07-09T09:37:26;1.90;;;1.20;;
11960;SDS011;6040;49.358;11.140;2022-07-09T09:39:54;3.40;;;1.30;;
11960;SDS011;6040;49.358;11.140;2022-07-09T09:42:22;2.03;;;1.30;;
11960;SDS011;6040;49.358;11.140;2022-07-09T09:44:50;4.32;;;1.40;;
11960;SDS011;6040;49.358;11.140;2022-07-09T09:47:19;1.27;;;1.17;;
11960;SDS011;6040;49.358;11.140;2022-07-09T09:49:49;1.58;;;1.30;;
11960;SDS011;6040;49.358;11.140;2022-07-09T09:52:18;2.65;;;1.40;;
11960;SDS011;6040;49.358;11.140;2022-07-09T09:54:46;4.53;;;1.48;;
11960;SDS011;6040;49.358;11.140;2022-07-09T09:57:14;2.05;;;1.48;;
11960;SDS011;6040;49.358;11.140;2022-07-09T09:59:43;2.97;;;1.52;;
11960;SDS011;6040;49.358;11.140;2022-07-09T10:02:12;3.80;;;1.40;;
11960;SDS011;6040;49.358;11.140;2022-07-09T10:04:40;3.23;;;1.40;;
11960;SDS011;6040;49.358;11.140;2022-07-09T10:07:08;3.03;;;1.40;;
11960;SDS011;6040;49.358;11.140;2022-07-09T10:09:38;3.00;;;1.50;;
11960;SDS011;6040;49.358;11.140;2022-07-09T10:12:06;3.13;;;1.40;;
11960;SDS011;6040;49.358;11.140;2022-07-09T10:14:36;3.03;;;1.40;;
11960;SDS011;6040;49.358;11.140;2022-07-09T10:17:11;3.07;;;1.40;;
11960;SDS011;6040;49.358;11.140;2022-07-09T10:19:49;2.23;;;1.40;;
11960;SDS011;6040;49.358;11.140;2022-07-09T10:22:17;4.40;;;1.60;;
11960;SDS011;6040;49.358;11.140;2022-07-09T10:24:46;4.73;;;1.50;;
11960;SDS011;6040;49.358;11.140;2022-07-09T10:27:16;1.63;;;1.20;;
11960;SDS011;6040;49.358;11.140;2022-07-09T10:29:52;1.30;;;1.00;;
11960;SDS011;6040;49.358;11.140;2022-07-09T10:32:24;2.87;;;1.60;;
11960;SDS011;6040;49.358;11.140;2022-07-09T10:34:56;3.33;;;1.40;;
11960;SDS011;6040;49.358;11.140;2022-07-09T10:37:34;2.90;;;1.30;;
11960;SDS011;6040;49.358;11.140;2022-07-09T10:40:11;1.73;;;1.20;;
11960;SDS011;6040;49.358;11.140;2022-07-09T10:42:38;1.77;;;1.37;;
11960;SDS011;6040;49.358;11.140;2022-07-09T10:48:07;5.00;;;1.27;;
11960;SDS011;6040;49.358;11.140;2022-07-09T10:50:37;3.87;;;1.60;;
11960;SDS011;6040;49.358;11.140;2022-07-09T10:53:06;1.37;;;1.27;;
11960;SDS011;6040;49.358;11.140;2022-07-09T10:55:35;2.30;;;1.50;;
11960;SDS011;6040;49.358;11.140;2022-07-09T10:58:02;2.33;;;1.33;;
11960;SDS011;6040;49.358;11.140;2022-07-09T11:00:32;1.97;;;1.20;;
11960;SDS011;6040;49.358;11.140;2022-07-09T11:03:00;2.03;;;1.30;;
11960;SDS011;6040;49.358;11.140;2022-07-09T11:05:30;2.40;;;1.40;;
11960;SDS011;6040;49.358;11.140;2022-07-09T11:07:58;1.80;;;1.50;;
11960;SDS011;6040;49.358;11.140;2022-07-09T11:10:27;5.20;;;1.30;;
11960;SDS011;6040;49.358;11.140;2022-07-09T11:12:56;1.90;;;1.37;;
11960;SDS011;6040;49.358;11.140;2022-07-09T11:15:25;2.67;;;1.43;;
11960;SDS011;6040;49.358;11.140;2022-07-09T11:17:54;1.77;;;1.20;;
11960;SDS011;6040;49.358;11.140;2022-07-09T11:20:22;1.57;;;1.40;;
11960;SDS011;6040;49.358;11.140;2022-07-09T11:22:49;1.50;;;1.40;;
11960;SDS011;6040;49.358;11.140;2022-07-09T11:25:16;2.13;;;1.30;;
11960;SDS011;6040;49.358;11.140;2022-07-09T11:27:43;2.30;;;1.40;;
11960;SDS011;6040;49.358;11.140;2022-07-09T11:30:15;4.20;;;1.40;;
11960;SDS011;6040;49.358;11.140;2022-07-09T11:32:42;2.37;;;1.33;;
11960;SDS011;6040;49.358;11.140;2022-07-09T11:35:10;1.90;;;1.30;;
11960;SDS011;6040;49.358;11.140;2022-07-09T11:37:37;2.90;;;1.40;;
11960;SDS011;6040;49.358;11.140;2022-07-09T11:40:14;1.47;;;1.37;;
11960;SDS011;6040;49.358;11.140;2022-07-09T11:42:43;2.70;;;1.50;;
11960;SDS011;6040;49.358;11.140;2022-07-09T11:45:10;4.23;;;1.60;;
11960;SDS011;6040;49.358;11.140;2022-07-09T11:47:39;1.63;;;1.37;;
11960;SDS011;6040;49.358;11.140;2022-07-09T11:50:06;2.60;;;1.50;;
11960;SDS011;6040;49.358;11.140;2022-07-09T11:52:35;2.67;;;1.60;;
11960;SDS011;6040;49.358;11.140;2022-07-09T11:55:03;1.50;;;1.40;;
11960;SDS011;6040;49.358;11.140;2022-07-09T11:57:32;2.47;;;1.60;;
11960;SDS011;6040;49.358;11.140;2022-07-09T12:00:01;3.87;;;2.03;;
11960;SDS011;6040;49.358;11.140;2022-07-09T12:02:29;2.67;;;1.70;;
11960;SDS011;6040;49.358;11.140;2022-07-09T12:04:59;3.97;;;1.80;;
11960;SDS011;6040;49.358;11.140;2022-07-09T12:07:28;3.13;;;1.67;;
11960;SDS011;6040;49.358;11.140;2022-07-09T12:09:59;2.60;;;1.70;;
11960;SDS011;6040;49.358;11.140;2022-07-09T12:12:27;2.57;;;1.57;;
11960;SDS011;6040;49.358;11.140;2022-07-09T12:14:54;1.83;;;1.63;;
11960;SDS011;6040;49.358;11.140;2022-07-09T12:17:22;3.20;;;1.60;;
11960;SDS011;6040;49.358;11.140;2022-07-09T12:19:50;1.70;;;1.60;;
11960;SDS011;6040;49.358;11.140;2022-07-09T12:22:18;2.63;;;1.63;;
11960;SDS011;6040;49.358;11.140;2022-07-09T12:24:45;2.03;;;1.43;;
11960;SDS011;6040;49.358;11.140;2022-07-09T12:27:12;2.57;;;1.80;;
11960;SDS011;6040;49.358;11.140;2022-07-09T12:29:39;2.03;;;1.63;;
11960;SDS011;6040;49.358;11.140;2022-07-09T12:32:06;2.97;;;1.70;;
11960;SDS011;6040;49.358;11.140;2022-07-09T12:34:34;3.00;;;1.63;;
11960;SDS011;6040;49.358;11.140;2022-07-09T12:37:01;4.83;;;1.67;;
11960;SDS011;6040;49.358;11.140;2022-07-09T12:39:30;3.00;;;1.80;;
11960;SDS011;6040;49.358;11.140;2022-07-09T12:41:57;3.60;;;1.70;;
11960;SDS011;6040;49.358;11.140;2022-07-09T12:44:24;3.23;;;1.70;;
11960;SDS011;6040;49.358;11.140;2022-07-09T12:46:51;4.63;;;1.90;;
11960;SDS011;6040;49.358;11.140;2022-07-09T12:49:19;2.20;;;1.63;;
11960;SDS011;6040;49.358;11.140;2022-07-09T12:51:46;2.30;;;1.70;;
11960;SDS011;6040;49.358;11.140;2022-07-09T12:54:13;2.83;;;1.90;;
11960;SDS011;6040;49.358;11.140;2022-07-09T12:56:41;3.67;;;1.70;;
11960;SDS011;6040;49.358;11.140;2022-07-09T12:59:08;3.50;;;1.73;;
11960;SDS011;6040;49.358;11.140;2022-07-09T13:01:34;2.63;;;1.70;;
11960;SDS011;6040;49.358;11.140;2022-07-09T13:04:01;2.13;;;1.80;;
11960;SDS011;6040;49.358;11.140;2022-07-09T13:06:28;5.00;;;1.80;;
11960;SDS011;6040;49.358;11.140;2022-07-09T13:08:58;4.53;;;1.70;;
11960;SDS011;6040;49.358;11.140;2022-07-09T13:11:25;3.57;;;1.63;;
11960;SDS011;6040;49.358;11.140;2022-07-09T13:13:54;2.10;;;1.77;;
11960;SDS011;6040;49.358;11.140;2022-07-09T13:16:21;2.77;;;1.90;;
11960;SDS011;6040;49.358;11.140;2022-07-09T13:18:49;2.03;;;1.60;;
11960;SDS011;6040;49.358;11.140;2022-07-09T13:21:17;3.80;;;1.93;;
11960;SDS011;6040;49.358;11.140;2022-07-09T13:23:44;3.33;;;2.00;;
11960;SDS011;6040;49.358;11.140;2022-07-09T13:26:11;3.03;;;1.60;;
11960;SDS011;6040;49.358;11.140;2022-07-09T13:28:38;1.80;;;1.50;;
11960;SDS011;6040;49.358;11.140;2022-07-09T13:31:06;2.07;;;1.50;;
11960;SDS011;6040;49.358;11.140;2022-07-09T13:33:33;2.80;;;1.60;;
11960;SDS011;6040;49.358;11.140;2022-07-09T13:36:01;2.80;;;1.50;;
11960;SDS011;6040;49.358;11.140;2022-07-09T13:38:29;2.20;;;1.40;;
11960;SDS011;6040;49.358;11.140;2022-07-09T13:40:56;2.83;;;1.50;;
11960;SDS011;6040;49.358;11.140;2022-07-09T13:43:24;2.93;;;1.70;;
11960;SDS011;6040;49.358;11.140;2022-07-09T13:45:51;2.17;;;1.60;;
11960;SDS011;6040;49.358;11.140;2022-07-09T13:48:21;2.90;;;1.50;;
11960;SDS011;6040;49.358;11.140;2022-07-09T13:50:48;3.37;;;1.40;;
11960;SDS011;6040;49.358;11.140;2022-07-09T13:53:15;2.70;;;1.63;;
11960;SDS011;6040;49.358;11.140;2022-07-09T13:55:42;2.23;;;1.60;;
11960;SDS011;6040;49.358;11.140;2022-07-09T13:58:10;5.57;;;1.67;;
11960;SDS011;6040;49.358;11.140;2022-07-09T14:00:37;2.70;;;1.50;;
11960;SDS011;6040;49.358;11.140;2022-07-09T14:03:04;1.87;;;1.60;;
11960;SDS011;6040;49.358;11.140;2022-07-09T14:05:32;3.20;;;1.77;;
11960;SDS011;6040;49.358;11.140;2022-07-09T14:08:01;1.60;;;1.40;;
11960;SDS011;6040;49.358;11.140;2022-07-09T14:10:28;1.70;;;1.60;;
11960;SDS011;6040;49.358;11.140;2022-07-09T14:12:55;3.10;;;1.80;;
11960;SDS011;6040;49.358;11.140;2022-07-09T14:15:22;3.10;;;1.50;;
11960;SDS011;6040;49.358;11.140;2022-07-09T14:17:49;1.83;;;1.53;;
11960;SDS011;6040;49.358;11.140;2022-07-09T14:20:16;2.83;;;1.70;;
11960;SDS011;6040;49.358;11.140;2022-07-09T14:22:45;2.43;;;1.53;;
11960;SDS011;6040;49.358;11.140;2022-07-09T14:25:12;2.33;;;1.50;;
11960;SDS011;6040;49.358;11.140;2022-07-09T14:27:39;3.77;;;1.60;;
11960;SDS011;6040;49.358;11.140;2022-07-09T14:30:07;4.80;;;1.73;;
11960;SDS011;6040;49.358;11.140;2022-07-09T14:32:35;2.77;;;1.53;;
11960;SDS011;6040;49.358;11.140;2022-07-09T14:35:02;2.90;;;1.83;;
11960;SDS011;6040;49.358;11.140;2022-07-09T14:37:30;3.50;;;1.67;;
11960;SDS011;6040;49.358;11.140;2022-07-09T14:39:58;2.13;;;1.60;;
11960;SDS011;6040;49.358;11.140;2022-07-09T14:42:25;2.03;;;1.83;;
11960;SDS011;6040;49.358;11.140;2022-07-09T14:44:52;5.30;;;2.00;;
11960;SDS011;6040;49.358;11.140;2022-07-09T14:47:19;1.90;;;1.63;;
11960;SDS011;6040;49.358;11.140;2022-07-09T14:49:46;2.10;;;1.63;;
11960;SDS011;6040;49.358;11.140;2022-07-09T14:52:13;2.90;;;1.70;;
11960;SDS011;6040;49.358;11.140;2022-07-09T14:54:40;2.77;;;1.70;;